Home Latest Filings Latest Buys Latest Sells Institutions Derivatives Hot Buys Data Screener Email Alerts Insider Charts
HII - As of  11/24/17, 05:49:17 AM:   72 Insider Transactions.

Sector: Industrial Goods    Industry: Aerospace/Defense Products & Services
Prev Close:$0.00  Avg Vol(3m): 0  P/E: 0.00  EPS: 0.00

Email this page to a friend.    Institutional Transactions for HII

                Buy: Blue    Sell: Red
Non-meaningful transactions (gifts, grants, etc.) are automatically filtered out for quicker actions.
Buy(P) /
Sell(S)
P/S date Filed Date Company Symbol Insider Relationship Share Amt. Unit Price Total Proceeds Shares Owned Return(1m) Details
S 2017-11-13 2017-11-14 10:31:00 HUNTINGTON INGALLS INDUSTRIES, INC. HII Wyatt D R officer (Corp VP & Treasurer) 800 $240.33 $192,264.00 19,065 view
S 2017-08-14 2017-08-15 16:34:48 HUNTINGTON INGALLS INDUSTRIES, INC. HII ERMATINGER WILLIAM R officer (Ex. VP, Chief HR Officer) 425 $215.76 $91,696.30 32,385 N/A view
S 2017-08-14 2017-08-15 16:34:48 HUNTINGTON INGALLS INDUSTRIES, INC. HII ERMATINGER WILLIAM R officer (Ex. VP, Chief HR Officer) 2,560 $214.99 $550,380.00 32,810 N/A view
S 2017-08-11 2017-08-14 12:11:54 HUNTINGTON INGALLS INDUSTRIES, INC. HII Wyatt D R officer (Corp VP & Treasurer) 800 $214.83 $171,864.00 19,865 N/A view
S 2017-07-12 2017-07-14 17:09:08 HUNTINGTON INGALLS INDUSTRIES, INC. HII Boykin Jennifer R. officer (Vice President, Engineering) 2,362 $196.00 $462,952.00 6,425 N/A view
S 2017-04-03 2017-07-06 16:42:21 HUNTINGTON INGALLS INDUSTRIES, INC. HII Green Edgar A III officer (Ex VP, Pres. HII Technical Sol) 2,362 $200.00 $472,400.00 6,903 N/A view
S 2017-03-03 2017-07-06 16:42:21 HUNTINGTON INGALLS INDUSTRIES, INC. HII Green Edgar A III officer (Ex VP, Pres. HII Technical Sol) 1,147 $218.18 $250,252.00 9,265 N/A view
S 2017-07-03 2017-07-06 16:36:27 HUNTINGTON INGALLS INDUSTRIES, INC. HII Dickseski Jerri F officer (EX. VP, Communications) 776 $186.18 $144,476.00 33,883 N/A view
S 2017-04-03 2017-07-06 16:36:27 HUNTINGTON INGALLS INDUSTRIES, INC. HII Dickseski Jerri F officer (EX. VP, Communications) 776 $200.00 $155,200.00 34,659 N/A view
P 2017-05-24 2017-05-26 17:45:23 HUNTINGTON INGALLS INDUSTRIES, INC. HII Kastner Christopher D CFO 4,183 $189.40 $792,260.00 39,464 N/A view
S 2017-05-16 2017-05-18 10:38:34 HUNTINGTON INGALLS INDUSTRIES, INC. HII Wyatt D R officer (Corp VP & Treasurer) 850 $197.60 $167,960.00 20,740 N/A view
S 2017-05-04 2017-05-05 16:37:04 HUNTINGTON INGALLS INDUSTRIES, INC. HII Kastner Christopher D officer (Ex. VP, Bus Dev & CFO) 4,300 $189.44 $814,579.00 35,281 N/A view
S 2017-05-04 2017-05-05 16:37:04 HUNTINGTON INGALLS INDUSTRIES, INC. HII Kastner Christopher D officer (Ex. VP, Bus Dev & CFO) 8,365 $189.41 $1,584,400.00 39,581 N/A view
S 2017-04-03 2017-04-04 17:20:14 HUNTINGTON INGALLS INDUSTRIES, INC. HII Smith Michael Stephen officer (Ex. VP, Strategy & Dev.) 142 $200.00 $28,400.00 2,272 N/A view
S 2017-03-24 2017-03-27 12:53:50 HUNTINGTON INGALLS INDUSTRIES, INC. HII Cuccias Brian J. officer (Ex. VP & President, Ingalls) 4,137 $207.49 $858,386.00 48,819 N/A view
S 2017-03-07 2017-03-08 16:49:52 HUNTINGTON INGALLS INDUSTRIES, INC. HII ERMATINGER WILLIAM R officer (Ex. VP, Chief HR Officer) 5,000 $218.92 $1,094,600.00 35,370 N/A view
S 2017-03-03 2017-03-06 13:41:25 HUNTINGTON INGALLS INDUSTRIES, INC. HII Wyatt D R officer (Corp VP & Treasurer) 500 $217.93 $108,962.00 21,590 N/A view
S 2017-01-03 2017-01-05 17:20:52 HUNTINGTON INGALLS INDUSTRIES, INC. HII Dickseski Jerri F officer (EX. VP, Communications) 776 $185.00 $143,560.00 33,269 N/A view
S 2016-11-29 2016-11-30 16:42:01 HUNTINGTON INGALLS INDUSTRIES, INC. HII MULHERIN MATTHEW J officer (Ex. VP, President Newport News) 8,000 $180.49 $1,443,880.00 103,613 N/A view
S 2016-11-11 2016-11-16 12:47:26 HUNTINGTON INGALLS INDUSTRIES, INC. HII Wyatt D R officer (Corp VP & Treasurer) 681 $172.82 $117,690.00 19,568 N/A view
S 2016-11-09 2016-11-10 16:38:09 HUNTINGTON INGALLS INDUSTRIES, INC. HII Kastner Christopher D officer (Corp VP, Bus Dev & CFO) 2,000 $165.90 $331,790.00 39,581 N/A view
S 2016-10-03 2016-10-04 16:54:20 HUNTINGTON INGALLS INDUSTRIES, INC. HII Dickseski Jerri F officer (Corp. VP, Communications) 625 $153.25 $95,781.20 34,045 N/A view
S 2016-08-08 2016-08-10 14:29:44 HUNTINGTON INGALLS INDUSTRIES, INC. HII Wyatt D R officer (Corp VP & Treasurer) 800 $169.00 $135,200.00 20,249 N/A view
S 2016-07-01 2016-07-06 16:08:21 HUNTINGTON INGALLS INDUSTRIES, INC. HII Dickseski Jerri F officer (Corp. VP, Communications) 750 $169.34 $127,005.00 34,670 N/A view
S 2016-05-09 2016-05-11 17:29:08 HUNTINGTON INGALLS INDUSTRIES, INC. HII Wyatt D R officer (Corp VP & Treasurer) 1,000 $154.52 $154,520.00 21,049 N/A view
S 2016-05-09 2016-05-11 17:11:05 HUNTINGTON INGALLS INDUSTRIES, INC. HII ERMATINGER WILLIAM R officer (Corp. VP, Chief HR Officer) 7,933 $154.13 $1,222,740.00 36,088 N/A view
S 2016-05-09 2016-05-11 17:01:03 HUNTINGTON INGALLS INDUSTRIES, INC. HII FARGO THOMAS B director 1,237 $153.26 $189,585.00 978 N/A view
S 2016-04-01 2016-04-05 11:29:04 HUNTINGTON INGALLS INDUSTRIES, INC. HII Dickseski Jerri F officer (Corp. VP, Communications) 750 $136.00 $102,000.00 35,420 N/A view
S 2016-01-08 2016-01-11 13:44:03 HUNTINGTON INGALLS INDUSTRIES, INC. HII NILAND BARBARA A officer (Corp VP and CFO) 20,261 $130.00 $2,633,930.00 47,973 N/A view
S 2016-01-04 2016-01-06 14:49:47 HUNTINGTON INGALLS INDUSTRIES, INC. HII Dickseski Jerri F officer (Corp. VP, Communications) 750 $125.00 $93,750.00 30,442 N/A view
S 2015-12-02 2015-12-04 12:59:02 HUNTINGTON INGALLS INDUSTRIES, INC. HII NILAND BARBARA A officer (Corp VP and CFO) 4,000 $132.48 $529,900.00 68,234 N/A view
S 2015-12-02 2015-12-04 12:59:02 HUNTINGTON INGALLS INDUSTRIES, INC. HII NILAND BARBARA A officer (Corp VP and CFO) 6,000 $131.57 $789,414.00 72,234 N/A view
S 2015-11-20 2015-11-23 14:29:04 HUNTINGTON INGALLS INDUSTRIES, INC. HII Wyatt D R officer (Corp VP & Treasurer) 800 $134.92 $107,938.00 16,003 N/A view
S 2015-11-05 2015-11-09 13:33:20 HUNTINGTON INGALLS INDUSTRIES, INC. HII NILAND BARBARA A officer (Corp VP and CFO) 10,000 $125.00 $1,250,000.00 78,234 N/A view
S 2015-10-07 2015-10-09 11:37:34 HUNTINGTON INGALLS INDUSTRIES, INC. HII Dickseski Jerri F officer (Corp. VP, Communications) 625 $110.00 $68,750.00 31,192 N/A view
S 2015-08-06 2015-08-10 13:35:43 HUNTINGTON INGALLS INDUSTRIES, INC. HII Dickseski Jerri F officer (Corp. VP, Communications) 625 $120.00 $75,000.00 32,063 N/A view
S 2015-04-13 2015-04-14 14:35:13 HUNTINGTON INGALLS INDUSTRIES, INC. HII NILAND BARBARA A officer (Corp VP and CFO) 10,000 $141.39 $1,413,910.00 88,234 13.30% view
S 2015-03-25 2015-03-26 10:52:07 HUNTINGTON INGALLS INDUSTRIES, INC. HII Dickseski Jerri F officer (Corp. VP, Communications) 625 $142.24 $88,900.00 32,688 1.88% view
S 2015-03-12 2015-03-16 14:36:00 HUNTINGTON INGALLS INDUSTRIES, INC. HII ERMATINGER WILLIAM R officer (Corp. VP, Chief HR Officer) 2,900 $140.65 $407,885.00 33,287 -0.96% view
S 2015-03-12 2015-03-16 14:36:00 HUNTINGTON INGALLS INDUSTRIES, INC. HII ERMATINGER WILLIAM R officer (Corp. VP, Chief HR Officer) 2,100 $139.99 $293,979.00 36,187 -1.44% view
S 2015-03-12 2015-03-16 14:33:30 HUNTINGTON INGALLS INDUSTRIES, INC. HII HAWTHORNE BRUCE officer (Corp VP General Counsel & Sec) 3,260 $141.00 $459,660.00 30,802 -0.71% view
S 2015-03-04 2015-03-06 11:20:50 HUNTINGTON INGALLS INDUSTRIES, INC. HII HAWTHORNE BRUCE officer (Corp VP General Counsel & Sec) 5,000 $142.35 $711,765.00 34,062 2.05% view
S 2015-03-02 2015-03-04 16:07:07 HUNTINGTON INGALLS INDUSTRIES, INC. HII Kastner Christopher D officer (Corp VP, Corporate Development) 5,463 $140.33 $766,623.00 30,666 0.63% view
S 2015-02-23 2015-02-25 16:34:55 HUNTINGTON INGALLS INDUSTRIES, INC. HII Dickseski Jerri F officer (Corp. VP, Communications) 500 $140.62 $70,312.50 27,106 -1.14% view
S 2014-12-01 2014-12-03 13:28:10 HUNTINGTON INGALLS INDUSTRIES, INC. HII Dickseski Jerri F officer (Corp. VP, Communications) 570 $108.02 $61,571.40 27,606 -4.11% view
S 2014-11-10 2014-11-12 15:14:04 HUNTINGTON INGALLS INDUSTRIES, INC. HII ERMATINGER WILLIAM R officer (Corp. VP, Chief HR Officer) 4,725 $108.36 $512,025.00 25,936 3.83% view
S 2014-11-10 2014-11-12 14:51:15 HUNTINGTON INGALLS INDUSTRIES, INC. HII EDENZON IRWIN F officer (Corp. VP, Strategic Projects) 568 $108.15 $61,430.30 31,649 3.64% view
S 2014-10-31 2014-11-04 13:44:04 HUNTINGTON INGALLS INDUSTRIES, INC. HII Dickseski Jerri F officer (Corp. VP, Communications) 570 $105.00 $59,850.00 28,176 -3.78% view
S 2014-08-25 2014-08-26 16:18:20 HUNTINGTON INGALLS INDUSTRIES, INC. HII Waldman Mitchell B officer (Corp VP-Govt & Cust Relations) 1,300 $103.80 $134,940.00 30,049 -0.29% view
S 2014-06-05 2014-06-06 14:41:51 HUNTINGTON INGALLS INDUSTRIES, INC. HII HAWTHORNE BRUCE officer (Corp VP General Counsel & Sec) 9,794 $101.77 $996,738.00 17,793 7.60% view
S 2014-06-02 2014-06-04 17:10:12 HUNTINGTON INGALLS INDUSTRIES, INC. HII Wyatt D R officer (Corp VP & Treasurer) 2,000 $100.29 $200,580.00 10,241 6.06% view
S 2014-05-30 2014-06-02 16:20:35 HUNTINGTON INGALLS INDUSTRIES, INC. HII NILAND BARBARA A officer (Corp VP and CFO) 22,715 $99.43 $2,258,600.00 69,195 4.87% view
S 2014-05-27 2014-05-28 16:01:57 HUNTINGTON INGALLS INDUSTRIES, INC. HII Cuccias Brian J. officer (Corp. VP & President, Ingalls) 10,000 $98.43 $984,310.00 30,788 4.27% view
S 2014-05-22 2014-05-23 13:42:09 HUNTINGTON INGALLS INDUSTRIES, INC. HII Dickseski Jerri F officer (Corp. VP, Communications) 3,305 $97.03 $320,691.00 28,746 -0.12% view
S 2014-05-22 2014-05-23 13:42:09 HUNTINGTON INGALLS INDUSTRIES, INC. HII Dickseski Jerri F officer (Corp. VP, Communications) 8,926 $97.10 $866,697.00 32,051 -0.05% view
S 2014-05-20 2014-05-21 16:22:22 HUNTINGTON INGALLS INDUSTRIES, INC. HII EDENZON IRWIN F officer (Corp. VP, Strategic Projects) 1,400 $96.08 $134,515.00 32,217 -1.11% view
S 2014-05-20 2014-05-21 16:22:22 HUNTINGTON INGALLS INDUSTRIES, INC. HII EDENZON IRWIN F officer (Corp. VP, Strategic Projects) 16,630 $95.43 $1,587,080.00 33,617 -1.80% view
S 2014-05-19 2014-05-21 16:22:22 HUNTINGTON INGALLS INDUSTRIES, INC. HII EDENZON IRWIN F officer (Corp. VP, Strategic Projects) 1,400 $97.10 $135,936.00 50,247 -0.25% view
S 2014-05-19 2014-05-21 16:22:22 HUNTINGTON INGALLS INDUSTRIES, INC. HII EDENZON IRWIN F officer (Corp. VP, Strategic Projects) 10,944 $96.39 $1,054,850.00 51,647 -0.99% view
S 2014-05-19 2014-05-21 16:22:22 HUNTINGTON INGALLS INDUSTRIES, INC. HII EDENZON IRWIN F officer (Corp. VP, Strategic Projects) 5,600 $96.84 $542,287.00 50,247 -0.52% view
S 2014-05-19 2014-05-21 16:22:22 HUNTINGTON INGALLS INDUSTRIES, INC. HII EDENZON IRWIN F officer (Corp. VP, Strategic Projects) 10,727 $96.14 $1,031,320.00 55,847 -1.25% view
S 2013-11-14 2013-11-15 16:33:33 HUNTINGTON INGALLS INDUSTRIES, INC. HII EDENZON IRWIN F officer (Corp. VP & President - Ingalls) 25,000 $78.91 $1,972,820.00 54,610 -3.11% view
S 2013-11-14 2013-11-15 16:30:36 HUNTINGTON INGALLS INDUSTRIES, INC. HII Dickseski Jerri F officer (Corp. VP, Communications) 2,000 $78.92 $157,832.00 39,300 -3.11% view
S 2013-11-12 2013-11-13 14:15:32 HUNTINGTON INGALLS INDUSTRIES, INC. HII MULHERIN MATTHEW J officer (Corp VP, President Newport New) 30,705 $76.76 $2,357,070.00 53,113 -4.53% view
S 2013-11-11 2013-11-13 14:09:58 HUNTINGTON INGALLS INDUSTRIES, INC. HII Kastner Christopher D officer (Corp VP, Corporate Development) 3,989 $76.41 $304,792.00 23,336 -4.07% view
S 2013-08-23 2013-08-26 15:30:08 HUNTINGTON INGALLS INDUSTRIES, INC. HII MULHERIN MATTHEW J officer (Corp VP, President Newport New) 12,344 $65.37 $806,889.00 83,818 -3.45% view
S 2013-08-23 2013-08-26 15:30:08 HUNTINGTON INGALLS INDUSTRIES, INC. HII MULHERIN MATTHEW J officer (Corp VP, President Newport New) 13,222 $65.37 $864,308.00 83,818 -3.44% view
S 2013-05-15 2013-05-16 13:18:36 HUNTINGTON INGALLS INDUSTRIES, INC. HII Waldman Mitchell B officer (Corp VP-Govt & Cust Relations) 3,664 $54.62 $200,128.00 31,622 -2.69% view
S 2013-05-10 2013-05-13 14:12:44 HUNTINGTON INGALLS INDUSTRIES, INC. HII Dickseski Jerri F officer (Corp. VP, Communications) 2,000 $53.60 $107,200.00 40,596 -5.71% view
S 2013-03-15 2013-03-19 12:07:38 HUNTINGTON INGALLS INDUSTRIES, INC. HII Wyatt D R officer (Corp VP & Treasurer) 4,436 $53.84 $238,834.00 9,183 3.66% view
S 2013-03-11 2013-03-12 17:15:28 HUNTINGTON INGALLS INDUSTRIES, INC. HII Kastner Christopher D officer (Corp VP, Corporate Development) 4,500 $50.70 $228,150.00 27,325 -2.82% view
S 2013-03-07 2013-03-11 15:47:26 HUNTINGTON INGALLS INDUSTRIES, INC. HII Simmerman George M. Jr. officer (Corp VP, Dep Gen Counsel) 4,000 $48.97 $195,880.00 28,636 -5.33% view
* An * after P or S in the Buy/Sell column means the transaction was filed by the insider as open market, but it was marked as private transaction by insidercow's proprietary method
Enter Another Stock Symbol: